SEVA (Osona)





Hora UTC 06:30
Temperatura 21.8 ºC
Sòl 15 cm 22.0 ºC
Humitat 85.5 %
Pressió 1012.4 hPa
Pluja 0.0 mm
Velocitat vent 0.0 km/h
Direcció vent NNE
Radiació solar 116.3 W/m²

Dades diàries 2024-07-21



Hora UTC (hivern +1h; estiu +2h)
Temperatura (ºC) Humitat (%) Pressió (hPa) Velocitat vent (km/h) Precipitació (mm) Radiació solar (W/m²)
Hora UTC Aire Sòl 15 cm Humitat Pressió Vel. Dir. Vel. Max Dir. Intent. màx 5 min. Rad. Sol.
00:05 21.5 19.5 73.5 1011.0 0.0 NNE 0.0 NNE 0.0 0.1
00:10 21.7 19.8 75.4 1011.0 0.0 NNE 0.0 SE 0.0 0.1
00:15 21.6 19.8 74.6 1010.9 0.0 NNE 0.0 SSE 0.0 0.1
00:20 21.4 19.7 76.2 1010.9 0.0 NNE 0.0 ESE 0.0 0.1
00:25 21.2 19.5 77.1 1010.8 0.0 NNE 0.0 SSE 0.0 0.1
00:30 21.1 19.4 78.4 1010.7 0.0 NNE 0.0 ESE 0.0 0.1
00:35 21.1 19.3 80.8 1010.7 0.0 NNE 0.0 SSW 0.0 0.1
00:40 20.9 19.1 81.5 1010.7 0.0 NNE 0.0 SSE 0.0 0.1
00:45 20.9 19.1 81.4 1010.7 0.0 NNE 0.0 SSE 0.0 0.1
00:50 20.6 18.8 79.1 1010.9 0.0 NNE 0.0 SE 0.0 0.1
00:55 20.3 18.6 78.0 1010.8 0.0 NNE 0.0 SSE 0.0 0.1
01:00 20.1 18.4 76.8 1010.7 0.0 NNE 0.0 E 0.0 0.1
01:05 19.9 18.2 76.8 1010.8 0.0 NNE 0.0 SE 0.0 0.1
01:10 19.8 18.0 75.2 1010.8 0.0 NNE 0.0 WSW 0.0 0.0
01:15 19.8 17.9 73.7 1010.8 0.0 NNE 0.0 SSW 0.0 0.0
01:20 19.9 17.9 72.7 1010.9 0.6 SW 8.8 WSW 0.0 0.1
01:25 20.1 18.1 72.6 1010.9 0.0 NNE 0.0 WSW 0.0 0.0
01:30 20.1 18.0 72.3 1011.0 0.0 NNE 0.0 SSW 0.0 0.0
01:35 19.9 17.8 73.6 1011.0 0.0 NNE 0.0 S 0.0 0.1
01:40 19.9 17.7 76.4 1010.8 0.0 NNE 0.0 S 0.0 0.1
01:45 19.8 17.8 74.8 1010.7 0.0 NNE 0.0 E 0.0 0.1
01:50 19.5 17.6 74.9 1010.6 0.0 NNE 0.0 E 0.0 0.1
01:55 19.6 17.6 76.2 1010.6 0.0 NNE 0.0 ESE 0.0 0.1
02:00 19.7 17.6 76.6 1010.6 0.0 NNE 0.0 ESE 0.0 0.1
02:05 19.7 17.7 75.9 1010.7 0.0 NNE 0.0 ESE 0.0 0.0
02:10 19.7 17.7 77.6 1010.7 0.0 NNE 0.0 E 0.0 0.1
02:15 19.6 17.7 77.6 1010.7 0.0 NNE 0.0 ESE 0.0 0.1
02:20 19.5 17.9 77.0 1010.8 0.0 NNE 0.0 W 0.0 0.1
02:25 19.6 18.0 77.2 1010.8 0.0 NNE 0.0 SW 0.0 0.0
02:30 19.8 18.3 78.1 1010.8 1.2 SSW 11.5 SSW 0.0 0.1
02:35 19.8 18.3 79.9 1010.6 0.0 NNE 0.0 SSW 0.0 0.1
02:40 19.7 18.2 80.6 1010.7 0.0 NNE 0.0 WSW 0.0 0.1
02:45 19.7 18.1 83.3 1010.8 0.0 NNE 0.0 SSE 0.0 0.1
02:50 19.7 18.1 83.8 1010.9 0.0 NNE 0.0 S 0.0 0.1
02:55 19.8 18.3 87.3 1010.9 0.0 NNE 0.0 SSW 0.0 0.0
03:00 19.9 18.6 88.3 1011.0 0.0 NNE 0.0 SSW 0.0 0.1
03:05 20.0 18.7 89.6 1010.9 0.0 NNE 0.0 SSW 0.0 0.1
03:10 20.1 18.8 90.1 1011.0 0.0 NNE 0.0 SSE 0.0 0.1
03:15 20.1 18.8 90.0 1011.1 0.0 NNE 0.0 SE 0.0 0.1
03:20 20.1 18.8 89.9 1011.2 0.0 NNE 0.0 SSE 0.0 0.1
03:25 19.9 18.7 88.7 1011.3 0.0 NNE 0.0 ENE 0.0 0.0
03:30 19.7 18.5 86.4 1011.4 0.0 NNE 0.0 ENE 0.0 0.1
03:35 19.6 18.3 86.4 1011.3 0.0 NNE 0.0 ENE 0.0 0.1
03:40 19.5 18.1 86.2 1011.3 0.0 NNE 0.0 SE 0.0 0.1
03:45 19.4 18.0 86.5 1011.2 0.0 NNE 0.0 SE 0.0 0.1
03:50 19.3 18.0 86.9 1011.2 0.0 NNE 0.0 E 0.0 0.1
03:55 19.2 17.8 87.6 1011.3 0.0 NNE 0.0 W 0.0 0.1
04:00 19.7 18.1 89.3 1011.2 0.0 NNE 0.0 NW 0.0 0.1
04:05 19.9 18.5 88.6 1011.1 0.0 NNE 0.0 WSW 0.0 0.1
04:10 19.9 18.5 89.7 1011.1 0.0 NNE 0.0 SSE 0.0 0.1
04:15 19.8 18.6 90.1 1011.2 0.0 NNE 0.0 SSW 0.0 0.1
04:20 19.8 18.6 90.9 1011.2 0.0 NNE 0.0 S 0.0 0.3
04:25 19.7 18.5 91.2 1011.3 0.0 NNE 0.0 SSE 0.0 0.6
04:30 19.6 18.3 91.7 1011.4 0.0 NNE 0.0 S 0.0 1.2
04:35 19.6 18.3 92.5 1011.5 0.0 NNE 0.0 SSE 0.0 2.2
04:40 19.7 18.3 93.2 1011.5 0.0 NNE 0.0 SSE 0.0 3.1
04:45 19.8 18.5 93.8 1011.5 0.0 NNE 0.0 SSW 0.0 4.4
04:50 19.9 18.5 93.9 1011.6 0.0 NNE 0.0 SSE 0.0 5.7
04:55 19.9 18.6 93.8 1011.6 0.0 NNE 0.0 SE 0.0 10.1
05:00 19.9 18.7 93.7 1011.6 0.0 NNE 0.0 SSE 0.0 16.6
05:05 19.9 18.8 93.7 1011.6 0.0 NNE 0.0 SSE 0.0 20.3
05:10 20.0 18.9 93.6 1011.7 0.0 NNE 0.0 ESE 0.0 24.9
05:15 20.0 19.0 93.6 1011.8 0.0 NNE 0.0 SSE 0.0 34.7
05:20 20.1 19.2 93.6 1011.7 0.0 NNE 0.0 SSW 0.0 38.5
05:25 20.1 19.4 93.3 1011.7 0.0 NNE 0.0 SE 0.0 40.2
05:30 20.3 19.7 92.8 1011.7 0.0 NNE 0.0 E 0.0 41.3
05:35 20.3 19.9 92.2 1011.8 0.0 NNE 0.0 SSE 0.0 46.5
05:40 20.5 20.2 91.6 1011.8 0.0 NNE 0.0 S 0.0 33.9
05:45 20.6 20.3 91.0 1012.0 0.0 NNE 0.0 SSE 0.0 29.7
05:50 20.7 20.5 89.9 1012.0 0.0 NNE 0.0 SW 0.0 53.6
05:55 20.9 20.8 89.0 1012.0 0.0 NNE 0.0 SSW 0.0 65.7
06:00 21.1 21.0 88.4 1012.1 0.0 NNE 0.0 SSW 0.0 57.2
06:05 21.2 21.2 87.9 1012.1 0.0 NNE 0.0 WSW 0.0 56.1
06:10 21.3 21.3 87.4 1012.2 0.0 NNE 0.0 SSW 0.0 59.9
06:15 21.4 21.4 86.9 1012.3 0.0 NNE 0.0 SSW 0.0 65.7
06:20 21.6 21.7 86.5 1012.4 0.0 NNE 0.0 W 0.0 67.4
06:25 21.7 21.8 86.2 1012.5 0.0 NNE 0.0 WSW 0.0 82.5
06:30 21.8 22.0 85.5 1012.4 0.0 NNE 0.0 SW 0.0 116.3
Màxima 21.9 22.0 93.9 1012.5 1.2 SSW 11.5 SSW 0.0 116.3
Mínima 19.2 17.6 72.3 1010.6
Total 0.0